sensor_id;sensor_type;location;lat;lon;timestamp;pressure;altitude;pressure_sealevel;temperature;humidity
39275;BME280;24980;48.874;2.332;2023-10-09T00:01:03;101863.02;;;27.80;42.23
39275;BME280;24980;48.874;2.332;2023-10-09T00:03:35;101865.75;;;27.79;42.22
39275;BME280;24980;48.874;2.332;2023-10-09T00:06:05;101859.72;;;27.78;42.23
39275;BME280;24980;48.874;2.332;2023-10-09T00:08:39;101858.02;;;27.78;42.22
39275;BME280;24980;48.874;2.332;2023-10-09T00:11:08;101855.51;;;27.77;42.22
39275;BME280;24980;48.874;2.332;2023-10-09T00:13:40;101854.48;;;27.77;42.21
39275;BME280;24980;48.874;2.332;2023-10-09T00:16:09;101851.78;;;27.75;42.21
39275;BME280;24980;48.874;2.332;2023-10-09T00:18:37;101851.02;;;27.74;42.19
39275;BME280;24980;48.874;2.332;2023-10-09T00:21:17;101853.53;;;27.73;42.19
39275;BME280;24980;48.874;2.332;2023-10-09T00:23:37;101854.73;;;27.73;42.20
39275;BME280;24980;48.874;2.332;2023-10-09T00:26:08;101853.81;;;27.71;42.20
39275;BME280;24980;48.874;2.332;2023-10-09T00:28:39;101852.16;;;27.70;42.20
39275;BME280;24980;48.874;2.332;2023-10-09T00:31:09;101855.33;;;27.69;42.21
39275;BME280;24980;48.874;2.332;2023-10-09T00:33:39;101856.36;;;27.68;42.22
39275;BME280;24980;48.874;2.332;2023-10-09T00:36:09;101858.45;;;27.66;42.22
39275;BME280;24980;48.874;2.332;2023-10-09T00:38:40;101856.34;;;27.65;42.23
39275;BME280;24980;48.874;2.332;2023-10-09T00:41:14;101857.91;;;27.64;42.24
39275;BME280;24980;48.874;2.332;2023-10-09T00:43:43;101849.49;;;27.63;42.25
39275;BME280;24980;48.874;2.332;2023-10-09T00:46:11;101842.43;;;27.62;42.27
39275;BME280;24980;48.874;2.332;2023-10-09T00:48:41;101842.14;;;27.61;42.28
39275;BME280;24980;48.874;2.332;2023-10-09T00:51:12;101841.12;;;27.61;42.30
39275;BME280;24980;48.874;2.332;2023-10-09T00:53:43;101835.34;;;27.59;42.32
39275;BME280;24980;48.874;2.332;2023-10-09T00:56:12;101829.48;;;27.58;42.33
39275;BME280;24980;48.874;2.332;2023-10-09T00:58:42;101826.84;;;27.58;42.33
39275;BME280;24980;48.874;2.332;2023-10-09T01:01:15;101823.22;;;27.57;42.34
39275;BME280;24980;48.874;2.332;2023-10-09T01:03:43;101824.00;;;27.56;42.34
39275;BME280;24980;48.874;2.332;2023-10-09T01:06:13;101820.34;;;27.55;42.34
39275;BME280;24980;48.874;2.332;2023-10-09T01:08:43;101815.88;;;27.54;42.34
39275;BME280;24980;48.874;2.332;2023-10-09T01:11:15;101814.69;;;27.54;42.36
39275;BME280;24980;48.874;2.332;2023-10-09T01:13:44;101810.53;;;27.52;42.37
39275;BME280;24980;48.874;2.332;2023-10-09T01:16:14;101805.38;;;27.52;42.38
39275;BME280;24980;48.874;2.332;2023-10-09T01:18:45;101803.52;;;27.51;42.40
39275;BME280;24980;48.874;2.332;2023-10-09T01:21:15;101804.20;;;27.51;42.43
39275;BME280;24980;48.874;2.332;2023-10-09T01:23:46;101798.41;;;27.50;42.44
39275;BME280;24980;48.874;2.332;2023-10-09T01:26:16;101799.70;;;27.49;42.46
39275;BME280;24980;48.874;2.332;2023-10-09T01:28:46;101797.06;;;27.49;42.49
39275;BME280;24980;48.874;2.332;2023-10-09T01:31:16;101792.09;;;27.47;42.50
39275;BME280;24980;48.874;2.332;2023-10-09T01:33:46;101788.02;;;27.47;42.51
39275;BME280;24980;48.874;2.332;2023-10-09T01:36:16;101784.02;;;27.46;42.52
39275;BME280;24980;48.874;2.332;2023-10-09T01:41:19;101778.62;;;27.44;42.54
39275;BME280;24980;48.874;2.332;2023-10-09T01:43:52;101777.00;;;27.44;42.54
39275;BME280;24980;48.874;2.332;2023-10-09T01:46:19;101779.55;;;27.43;42.54
39275;BME280;24980;48.874;2.332;2023-10-09T01:48:49;101780.06;;;27.42;42.55
39275;BME280;24980;48.874;2.332;2023-10-09T01:51:19;101779.17;;;27.41;42.55
39275;BME280;24980;48.874;2.332;2023-10-09T01:53:48;101780.72;;;27.39;42.54
39275;BME280;24980;48.874;2.332;2023-10-09T01:56:19;101778.04;;;27.38;42.54
39275;BME280;24980;48.874;2.332;2023-10-09T01:58:49;101776.52;;;27.38;42.54
39275;BME280;24980;48.874;2.332;2023-10-09T02:01:19;101770.05;;;27.37;42.54
39275;BME280;24980;48.874;2.332;2023-10-09T02:03:49;101766.06;;;27.36;42.54
39275;BME280;24980;48.874;2.332;2023-10-09T02:06:19;101764.23;;;27.35;42.55
39275;BME280;24980;48.874;2.332;2023-10-09T02:08:49;101759.56;;;27.34;42.55
39275;BME280;24980;48.874;2.332;2023-10-09T02:11:20;101759.06;;;27.33;42.54
39275;BME280;24980;48.874;2.332;2023-10-09T02:13:53;101759.15;;;27.33;42.56
39275;BME280;24980;48.874;2.332;2023-10-09T02:16:20;101758.69;;;27.32;42.57
39275;BME280;24980;48.874;2.332;2023-10-09T02:18:56;101757.08;;;27.31;42.57
39275;BME280;24980;48.874;2.332;2023-10-09T02:21:20;101755.90;;;27.30;42.58
39275;BME280;24980;48.874;2.332;2023-10-09T02:23:56;101753.52;;;27.30;42.59
39275;BME280;24980;48.874;2.332;2023-10-09T02:26:20;101751.27;;;27.29;42.59
39275;BME280;24980;48.874;2.332;2023-10-09T02:28:52;101755.61;;;27.28;42.59
39275;BME280;24980;48.874;2.332;2023-10-09T02:31:21;101753.50;;;27.27;42.60
39275;BME280;24980;48.874;2.332;2023-10-09T02:33:51;101750.18;;;27.26;42.61
39275;BME280;24980;48.874;2.332;2023-10-09T02:36:21;101754.05;;;27.26;42.62
39275;BME280;24980;48.874;2.332;2023-10-09T02:38:51;101747.52;;;27.24;42.63
39275;BME280;24980;48.874;2.332;2023-10-09T02:41:21;101748.80;;;27.23;42.65
39275;BME280;24980;48.874;2.332;2023-10-09T02:43:51;101749.31;;;27.23;42.66
39275;BME280;24980;48.874;2.332;2023-10-09T02:46:22;101743.14;;;27.22;42.68
39275;BME280;24980;48.874;2.332;2023-10-09T02:48:52;101748.17;;;27.21;42.68
39275;BME280;24980;48.874;2.332;2023-10-09T02:51:26;101749.72;;;27.20;42.69
39275;BME280;24980;48.874;2.332;2023-10-09T02:53:57;101753.89;;;27.20;42.70
39275;BME280;24980;48.874;2.332;2023-10-09T02:56:28;101758.70;;;27.19;42.71
39275;BME280;24980;48.874;2.332;2023-10-09T02:58:54;101757.94;;;27.18;42.73
39275;BME280;24980;48.874;2.332;2023-10-09T03:01:24;101755.22;;;27.18;42.73
39275;BME280;24980;48.874;2.332;2023-10-09T03:03:54;101755.66;;;27.17;42.75
39275;BME280;24980;48.874;2.332;2023-10-09T03:06:24;101761.02;;;27.17;42.75
39275;BME280;24980;48.874;2.332;2023-10-09T03:08:54;101760.98;;;27.16;42.76
39275;BME280;24980;48.874;2.332;2023-10-09T03:11:24;101763.38;;;27.15;42.78
39275;BME280;24980;48.874;2.332;2023-10-09T03:13:54;101766.95;;;27.15;42.79
39275;BME280;24980;48.874;2.332;2023-10-09T03:16:24;101775.04;;;27.14;42.81
39275;BME280;24980;48.874;2.332;2023-10-09T03:18:55;101767.48;;;27.13;42.83
39275;BME280;24980;48.874;2.332;2023-10-09T03:21:25;101767.86;;;27.13;42.83
39275;BME280;24980;48.874;2.332;2023-10-09T03:23:55;101763.10;;;27.12;42.84
39275;BME280;24980;48.874;2.332;2023-10-09T03:26:25;101758.34;;;27.11;42.85
39275;BME280;24980;48.874;2.332;2023-10-09T03:28:56;101756.98;;;27.10;42.87
39275;BME280;24980;48.874;2.332;2023-10-09T03:31:26;101755.51;;;27.09;42.87
39275;BME280;24980;48.874;2.332;2023-10-09T03:34:00;101762.57;;;27.08;42.88
39275;BME280;24980;48.874;2.332;2023-10-09T03:36:27;101762.25;;;27.07;42.89
39275;BME280;24980;48.874;2.332;2023-10-09T03:38:59;101764.59;;;27.06;42.89
39275;BME280;24980;48.874;2.332;2023-10-09T03:41:31;101769.27;;;27.05;42.92
39275;BME280;24980;48.874;2.332;2023-10-09T03:43:58;101770.12;;;27.05;42.93
39275;BME280;24980;48.874;2.332;2023-10-09T03:46:28;101772.61;;;27.04;42.94
39275;BME280;24980;48.874;2.332;2023-10-09T03:49:04;101771.76;;;27.04;42.94
39275;BME280;24980;48.874;2.332;2023-10-09T03:51:31;101775.38;;;27.03;42.94
39275;BME280;24980;48.874;2.332;2023-10-09T03:54:06;101774.11;;;27.02;42.95
39275;BME280;24980;48.874;2.332;2023-10-09T03:56:30;101769.94;;;27.01;42.97
39275;BME280;24980;48.874;2.332;2023-10-09T03:59:01;101772.41;;;27.01;43.02
39275;BME280;24980;48.874;2.332;2023-10-09T04:01:31;101773.69;;;27.01;43.05
39275;BME280;24980;48.874;2.332;2023-10-09T04:04:06;101775.69;;;26.99;43.09
39275;BME280;24980;48.874;2.332;2023-10-09T04:06:33;101771.78;;;26.99;43.10
39275;BME280;24980;48.874;2.332;2023-10-09T04:09:09;101774.94;;;26.98;43.11
39275;BME280;24980;48.874;2.332;2023-10-09T04:11:47;101776.85;;;26.97;43.10
39275;BME280;24980;48.874;2.332;2023-10-09T04:14:04;101771.84;;;26.96;43.09
39275;BME280;24980;48.874;2.332;2023-10-09T04:16:34;101773.05;;;26.95;43.08
39275;BME280;24980;48.874;2.332;2023-10-09T04:19:04;101768.62;;;26.94;43.08
39275;BME280;24980;48.874;2.332;2023-10-09T04:21:34;101770.70;;;26.94;43.08
39275;BME280;24980;48.874;2.332;2023-10-09T04:24:06;101768.68;;;26.92;43.07
39275;BME280;24980;48.874;2.332;2023-10-09T04:26:36;101766.56;;;26.91;43.07
39275;BME280;24980;48.874;2.332;2023-10-09T04:29:06;101762.69;;;26.90;43.07
39275;BME280;24980;48.874;2.332;2023-10-09T04:31:39;101764.91;;;26.89;43.05
39275;BME280;24980;48.874;2.332;2023-10-09T04:34:07;101772.83;;;26.89;43.07
39275;BME280;24980;48.874;2.332;2023-10-09T04:36:37;101768.92;;;26.88;43.06
39275;BME280;24980;48.874;2.332;2023-10-09T04:39:07;101768.97;;;26.87;43.06
39275;BME280;24980;48.874;2.332;2023-10-09T04:41:40;101764.89;;;26.86;43.06
39275;BME280;24980;48.874;2.332;2023-10-09T04:44:12;101764.98;;;26.85;43.07
39275;BME280;24980;48.874;2.332;2023-10-09T04:46:39;101765.37;;;26.84;43.07
39275;BME280;24980;48.874;2.332;2023-10-09T04:49:12;101766.31;;;26.84;43.07
39275;BME280;24980;48.874;2.332;2023-10-09T04:51:48;101767.77;;;26.82;43.08
39275;BME280;24980;48.874;2.332;2023-10-09T04:54:19;101766.11;;;26.81;43.09
39275;BME280;24980;48.874;2.332;2023-10-09T04:56:45;101769.48;;;26.80;43.09
39275;BME280;24980;48.874;2.332;2023-10-09T04:59:11;101768.47;;;26.80;43.09
39275;BME280;24980;48.874;2.332;2023-10-09T05:01:42;101776.72;;;26.79;43.09
39275;BME280;24980;48.874;2.332;2023-10-09T05:04:12;101775.20;;;26.79;43.10
39275;BME280;24980;48.874;2.332;2023-10-09T05:06:42;101776.94;;;26.78;43.10
39275;BME280;24980;48.874;2.332;2023-10-09T05:09:12;101785.20;;;26.77;43.10
39275;BME280;24980;48.874;2.332;2023-10-09T05:11:42;101786.82;;;26.76;43.11
39275;BME280;24980;48.874;2.332;2023-10-09T05:14:13;101789.12;;;26.75;43.12
39275;BME280;24980;48.874;2.332;2023-10-09T05:16:43;101791.12;;;26.74;43.12
39275;BME280;24980;48.874;2.332;2023-10-09T05:19:15;101795.89;;;26.73;43.13
39275;BME280;24980;48.874;2.332;2023-10-09T05:21:43;101800.48;;;26.73;43.14
39275;BME280;24980;48.874;2.332;2023-10-09T05:24:14;101793.18;;;26.72;43.14
39275;BME280;24980;48.874;2.332;2023-10-09T05:26:48;101795.86;;;26.71;43.15
39275;BME280;24980;48.874;2.332;2023-10-09T05:29:15;101795.44;;;26.70;43.16
39275;BME280;24980;48.874;2.332;2023-10-09T05:31:47;101795.53;;;26.69;43.17
39275;BME280;24980;48.874;2.332;2023-10-09T05:36:50;101794.98;;;26.67;43.18
39275;BME280;24980;48.874;2.332;2023-10-09T05:39:19;101795.67;;;26.67;43.19
39275;BME280;24980;48.874;2.332;2023-10-09T05:41:53;101801.38;;;26.66;43.19
39275;BME280;24980;48.874;2.332;2023-10-09T05:44:19;101806.44;;;26.65;43.20
39275;BME280;24980;48.874;2.332;2023-10-09T05:46:47;101810.09;;;26.65;43.20
39275;BME280;24980;48.874;2.332;2023-10-09T05:49:17;101809.75;;;26.64;43.22
39275;BME280;24980;48.874;2.332;2023-10-09T05:51:48;101807.81;;;26.63;43.22
39275;BME280;24980;48.874;2.332;2023-10-09T05:54:18;101801.44;;;26.62;43.22
39275;BME280;24980;48.874;2.332;2023-10-09T05:56:48;101810.48;;;26.62;43.23
39275;BME280;24980;48.874;2.332;2023-10-09T05:59:18;101810.07;;;26.60;43.23
39275;BME280;24980;48.874;2.332;2023-10-09T06:01:48;101809.14;;;26.60;43.24
39275;BME280;24980;48.874;2.332;2023-10-09T06:04:19;101807.61;;;26.59;43.25
39275;BME280;24980;48.874;2.332;2023-10-09T06:06:49;101802.30;;;26.58;43.25
39275;BME280;24980;48.874;2.332;2023-10-09T06:09:19;101801.88;;;26.57;43.26
39275;BME280;24980;48.874;2.332;2023-10-09T06:11:50;101800.15;;;26.54;43.28
39275;BME280;24980;48.874;2.332;2023-10-09T06:16:51;101802.68;;;26.50;43.31
39275;BME280;24980;48.874;2.332;2023-10-09T06:19:37;101809.45;;;26.47;43.31
39275;BME280;24980;48.874;2.332;2023-10-09T06:21:50;101812.39;;;26.44;43.31
39275;BME280;24980;48.874;2.332;2023-10-09T06:24:21;101816.77;;;26.42;43.29
39275;BME280;24980;48.874;2.332;2023-10-09T06:26:52;101812.45;;;26.40;43.29
39275;BME280;24980;48.874;2.332;2023-10-09T06:29:21;101817.34;;;26.38;43.28
39275;BME280;24980;48.874;2.332;2023-10-09T06:31:51;101822.54;;;26.36;43.29
39275;BME280;24980;48.874;2.332;2023-10-09T06:34:21;101824.62;;;26.34;43.30
39275;BME280;24980;48.874;2.332;2023-10-09T06:36:51;101820.59;;;26.31;43.33
39275;BME280;24980;48.874;2.332;2023-10-09T06:39:21;101828.38;;;26.29;43.35
39275;BME280;24980;48.874;2.332;2023-10-09T06:41:51;101829.40;;;26.28;43.36
39275;BME280;24980;48.874;2.332;2023-10-09T06:44:21;101826.89;;;26.26;43.36
39275;BME280;24980;48.874;2.332;2023-10-09T06:46:51;101832.42;;;26.25;43.38
39275;BME280;24980;48.874;2.332;2023-10-09T06:49:25;101831.28;;;26.23;43.38
39275;BME280;24980;48.874;2.332;2023-10-09T06:51:52;101834.77;;;26.21;43.37
39275;BME280;24980;48.874;2.332;2023-10-09T06:54:22;101827.00;;;26.18;43.38
39275;BME280;24980;48.874;2.332;2023-10-09T06:56:59;101828.48;;;26.16;43.38
39275;BME280;24980;48.874;2.332;2023-10-09T06:59:29;101826.42;;;26.15;43.39
39275;BME280;24980;48.874;2.332;2023-10-09T07:04:24;101823.07;;;26.12;43.40
39275;BME280;24980;48.874;2.332;2023-10-09T07:06:55;101824.22;;;26.14;43.38
39275;BME280;24980;48.874;2.332;2023-10-09T07:09:30;101824.29;;;26.17;43.37
39275;BME280;24980;48.874;2.332;2023-10-09T07:11:55;101826.06;;;26.19;43.35
39275;BME280;24980;48.874;2.332;2023-10-09T07:14:31;101825.17;;;26.22;43.35
39275;BME280;24980;48.874;2.332;2023-10-09T07:17:05;101825.67;;;26.22;43.35
39275;BME280;24980;48.874;2.332;2023-10-09T07:19:30;101824.61;;;26.24;43.37
39275;BME280;24980;48.874;2.332;2023-10-09T07:21:58;101832.93;;;26.26;43.37
39275;BME280;24980;48.874;2.332;2023-10-09T07:24:31;101833.02;;;26.25;43.39
39275;BME280;24980;48.874;2.332;2023-10-09T07:26:58;101835.81;;;26.26;43.40
39275;BME280;24980;48.874;2.332;2023-10-09T07:29:29;101836.75;;;26.26;43.41
39275;BME280;24980;48.874;2.332;2023-10-09T07:31:59;101838.62;;;26.26;43.42
39275;BME280;24980;48.874;2.332;2023-10-09T07:34:29;101839.98;;;26.26;43.45
39275;BME280;24980;48.874;2.332;2023-10-09T07:37:00;101840.75;;;26.26;43.46
39275;BME280;24980;48.874;2.332;2023-10-09T07:39:31;101841.26;;;26.26;43.47
39275;BME280;24980;48.874;2.332;2023-10-09T07:42:01;101847.34;;;26.27;43.48
39275;BME280;24980;48.874;2.332;2023-10-09T07:44:30;101851.59;;;26.27;43.50
39275;BME280;24980;48.874;2.332;2023-10-09T07:47:01;101853.75;;;26.26;43.51
39275;BME280;24980;48.874;2.332;2023-10-09T07:49:31;101855.19;;;26.26;43.54
39275;BME280;24980;48.874;2.332;2023-10-09T07:52:01;101858.22;;;26.27;43.55
39275;BME280;24980;48.874;2.332;2023-10-09T07:54:31;101856.86;;;26.27;43.56
39275;BME280;24980;48.874;2.332;2023-10-09T07:57:01;101859.41;;;26.27;43.58
39275;BME280;24980;48.874;2.332;2023-10-09T07:59:31;101858.98;;;26.27;43.59
39275;BME280;24980;48.874;2.332;2023-10-09T08:02:02;101861.45;;;26.27;43.61
39275;BME280;24980;48.874;2.332;2023-10-09T08:04:32;101858.39;;;26.27;43.62
39275;BME280;24980;48.874;2.332;2023-10-09T08:07:03;101860.42;;;26.27;43.63
39275;BME280;24980;48.874;2.332;2023-10-09T08:09:34;101858.39;;;26.27;43.65
39275;BME280;24980;48.874;2.332;2023-10-09T08:12:05;101860.00;;;26.27;43.67
39275;BME280;24980;48.874;2.332;2023-10-09T08:14:35;101861.36;;;26.27;43.70
39275;BME280;24980;48.874;2.332;2023-10-09T08:17:05;101858.64;;;26.27;43.72
39275;BME280;24980;48.874;2.332;2023-10-09T08:19:35;101862.63;;;26.28;43.74
39275;BME280;24980;48.874;2.332;2023-10-09T08:22:06;101861.44;;;26.29;43.77
39275;BME280;24980;48.874;2.332;2023-10-09T08:24:36;101865.77;;;26.29;43.79
39275;BME280;24980;48.874;2.332;2023-10-09T08:27:09;101869.22;;;26.30;43.81
39275;BME280;24980;48.874;2.332;2023-10-09T08:29:37;101871.08;;;26.31;43.82
39275;BME280;24980;48.874;2.332;2023-10-09T08:32:07;101866.91;;;26.32;43.86
39275;BME280;24980;48.874;2.332;2023-10-09T08:34:37;101871.58;;;26.33;43.87
39275;BME280;24980;48.874;2.332;2023-10-09T08:37:10;101873.25;;;26.34;43.90
39275;BME280;24980;48.874;2.332;2023-10-09T08:39:42;101877.16;;;26.34;43.91
39275;BME280;24980;48.874;2.332;2023-10-09T08:42:13;101879.19;;;26.34;43.92
39275;BME280;24980;48.874;2.332;2023-10-09T08:44:39;101878.09;;;26.34;43.93
39275;BME280;24980;48.874;2.332;2023-10-09T08:47:09;101886.62;;;26.36;43.94
39275;BME280;24980;48.874;2.332;2023-10-09T08:49:38;101881.52;;;26.37;43.96
39275;BME280;24980;48.874;2.332;2023-10-09T08:52:08;101878.80;;;26.38;43.97
39275;BME280;24980;48.874;2.332;2023-10-09T08:54:39;101882.84;;;26.40;43.97
39275;BME280;24980;48.874;2.332;2023-10-09T08:57:09;101882.14;;;26.42;43.97
39275;BME280;24980;48.874;2.332;2023-10-09T08:59:42;101887.71;;;26.44;43.97
39275;BME280;24980;48.874;2.332;2023-10-09T09:02:10;101887.84;;;26.46;43.97
39275;BME280;24980;48.874;2.332;2023-10-09T09:04:41;101892.34;;;26.48;43.98
39275;BME280;24980;48.874;2.332;2023-10-09T09:07:29;101890.59;;;26.49;43.97
39275;BME280;24980;48.874;2.332;2023-10-09T09:09:56;101885.66;;;26.51;43.97
39275;BME280;24980;48.874;2.332;2023-10-09T09:12:20;101886.89;;;26.52;43.96
39275;BME280;24980;48.874;2.332;2023-10-09T09:14:46;101884.25;;;26.53;43.96
39275;BME280;24980;48.874;2.332;2023-10-09T09:19:44;101884.45;;;26.56;43.96
39275;BME280;24980;48.874;2.332;2023-10-09T09:22:14;101887.12;;;26.59;43.96
39275;BME280;24980;48.874;2.332;2023-10-09T09:24:58;101883.88;;;26.60;43.94
39275;BME280;24980;48.874;2.332;2023-10-09T09:27:14;101883.84;;;26.62;43.93
39275;BME280;24980;48.874;2.332;2023-10-09T09:29:45;101882.72;;;26.63;43.91
39275;BME280;24980;48.874;2.332;2023-10-09T09:32:15;101884.67;;;26.64;43.90
39275;BME280;24980;48.874;2.332;2023-10-09T09:34:50;101889.56;;;26.66;43.89
39275;BME280;24980;48.874;2.332;2023-10-09T09:37:20;101883.77;;;26.67;43.88
39275;BME280;24980;48.874;2.332;2023-10-09T09:39:50;101881.69;;;26.68;43.86
39275;BME280;24980;48.874;2.332;2023-10-09T09:42:18;101881.84;;;26.70;43.84
39275;BME280;24980;48.874;2.332;2023-10-09T09:44:48;101876.27;;;26.72;43.82
39275;BME280;24980;48.874;2.332;2023-10-09T09:47:21;101877.88;;;26.75;43.81
39275;BME280;24980;48.874;2.332;2023-10-09T09:49:50;101880.12;;;26.77;43.79
39275;BME280;24980;48.874;2.332;2023-10-09T09:54:56;101881.84;;;26.81;43.75
39275;BME280;24980;48.874;2.332;2023-10-09T09:57:23;101881.48;;;26.84;43.72
39275;BME280;24980;48.874;2.332;2023-10-09T09:59:52;101878.97;;;26.85;43.71
39275;BME280;24980;48.874;2.332;2023-10-09T10:02:31;101879.80;;;26.87;43.69
39275;BME280;24980;48.874;2.332;2023-10-09T10:04:55;101876.27;;;26.89;43.68
39275;BME280;24980;48.874;2.332;2023-10-09T10:07:25;101873.67;;;26.91;43.67
39275;BME280;24980;48.874;2.332;2023-10-09T10:09:53;101875.95;;;26.93;43.65
39275;BME280;24980;48.874;2.332;2023-10-09T10:12:49;101880.84;;;26.95;43.60
39275;BME280;24980;48.874;2.332;2023-10-09T10:14:59;101882.57;;;26.98;43.58
39275;BME280;24980;48.874;2.332;2023-10-09T10:17:25;101882.43;;;27.01;43.55
39275;BME280;24980;48.874;2.332;2023-10-09T10:20:01;101885.14;;;27.03;43.53
39275;BME280;24980;48.874;2.332;2023-10-09T10:22:26;101879.81;;;27.06;43.52
39275;BME280;24980;48.874;2.332;2023-10-09T10:25:01;101879.00;;;27.07;43.51
39275;BME280;24980;48.874;2.332;2023-10-09T10:27:26;101878.73;;;27.08;43.49
39275;BME280;24980;48.874;2.332;2023-10-09T10:34:57;101877.22;;;27.13;43.51
39275;BME280;24980;48.874;2.332;2023-10-09T10:37:38;101882.62;;;27.14;43.51
39275;BME280;24980;48.874;2.332;2023-10-09T10:39:58;101882.96;;;27.13;43.49
39275;BME280;24980;48.874;2.332;2023-10-09T10:42:28;101884.48;;;27.14;43.48
39275;BME280;24980;48.874;2.332;2023-10-09T10:45:01;101880.57;;;27.14;43.45
39275;BME280;24980;48.874;2.332;2023-10-09T10:47:29;101876.56;;;27.15;43.43
39275;BME280;24980;48.874;2.332;2023-10-09T10:50:01;101872.39;;;27.15;43.41
39275;BME280;24980;48.874;2.332;2023-10-09T10:52:31;101872.23;;;27.15;43.34
39275;BME280;24980;48.874;2.332;2023-10-09T10:55:12;101869.58;;;27.16;43.27
39275;BME280;24980;48.874;2.332;2023-10-09T10:57:35;101864.81;;;27.16;43.18
39275;BME280;24980;48.874;2.332;2023-10-09T11:00:01;101860.05;;;27.16;43.11
39275;BME280;24980;48.874;2.332;2023-10-09T11:02:32;101862.10;;;27.14;43.04
39275;BME280;24980;48.874;2.332;2023-10-09T11:05:05;101861.05;;;27.13;42.99
39275;BME280;24980;48.874;2.332;2023-10-09T11:07:32;101863.86;;;27.12;42.95
39275;BME280;24980;48.874;2.332;2023-10-09T11:10:02;101864.97;;;27.11;42.91
39275;BME280;24980;48.874;2.332;2023-10-09T11:12:44;101864.12;;;27.11;42.88
39275;BME280;24980;48.874;2.332;2023-10-09T11:15:12;101864.97;;;27.11;42.85
39275;BME280;24980;48.874;2.332;2023-10-09T11:17:35;101859.52;;;27.11;42.82
39275;BME280;24980;48.874;2.332;2023-10-09T11:20:05;101854.58;;;27.12;42.77
39275;BME280;24980;48.874;2.332;2023-10-09T11:22:35;101855.86;;;27.13;42.76
39275;BME280;24980;48.874;2.332;2023-10-09T11:25:06;101859.98;;;27.14;42.70
39275;BME280;24980;48.874;2.332;2023-10-09T11:27:35;101854.81;;;27.17;42.62
39275;BME280;24980;48.874;2.332;2023-10-09T11:30:08;101858.92;;;27.20;42.57
39275;BME280;24980;48.874;2.332;2023-10-09T11:32:36;101859.11;;;27.24;42.57
39275;BME280;24980;48.874;2.332;2023-10-09T11:35:10;101863.90;;;27.27;42.53
39275;BME280;24980;48.874;2.332;2023-10-09T11:37:37;101862.81;;;27.31;42.45
39275;BME280;24980;48.874;2.332;2023-10-09T11:40:14;101854.88;;;27.32;42.38
39275;BME280;24980;48.874;2.332;2023-10-09T11:42:44;101852.36;;;27.33;42.29
39275;BME280;24980;48.874;2.332;2023-10-09T11:45:26;101850.66;;;27.34;42.25
39275;BME280;24980;48.874;2.332;2023-10-09T11:47:38;101846.22;;;27.34;42.21
39275;BME280;24980;48.874;2.332;2023-10-09T11:50:14;101844.27;;;27.35;42.17
39275;BME280;24980;48.874;2.332;2023-10-09T11:53:00;101842.90;;;27.35;42.12
39275;BME280;24980;48.874;2.332;2023-10-09T11:55:09;101843.70;;;27.36;42.11
39275;BME280;24980;48.874;2.332;2023-10-09T11:57:44;101837.23;;;27.36;42.09
39275;BME280;24980;48.874;2.332;2023-10-09T12:02:39;101836.52;;;27.35;42.07
39275;BME280;24980;48.874;2.332;2023-10-09T12:05:10;101836.86;;;27.35;42.03
39275;BME280;24980;48.874;2.332;2023-10-09T12:07:40;101833.03;;;27.34;42.00
39275;BME280;24980;48.874;2.332;2023-10-09T12:10:10;101830.05;;;27.34;41.96
39275;BME280;24980;48.874;2.332;2023-10-09T12:12:40;101826.31;;;27.34;41.94
39275;BME280;24980;48.874;2.332;2023-10-09T12:15:10;101818.65;;;27.34;41.93
39275;BME280;24980;48.874;2.332;2023-10-09T12:17:40;101814.47;;;27.35;41.91
39275;BME280;24980;48.874;2.332;2023-10-09T12:20:10;101810.16;;;27.37;41.88
39275;BME280;24980;48.874;2.332;2023-10-09T12:22:41;101807.11;;;27.39;41.85
39275;BME280;24980;48.874;2.332;2023-10-09T12:25:11;101805.77;;;27.43;41.83
39275;BME280;24980;48.874;2.332;2023-10-09T12:27:41;101806.20;;;27.45;41.81
39275;BME280;24980;48.874;2.332;2023-10-09T12:30:11;101804.34;;;27.48;41.79
39275;BME280;24980;48.874;2.332;2023-10-09T12:32:41;101800.19;;;27.51;41.76
39275;BME280;24980;48.874;2.332;2023-10-09T12:35:11;101794.33;;;27.55;41.74
39275;BME280;24980;48.874;2.332;2023-10-09T12:37:44;101790.04;;;27.59;41.72
39275;BME280;24980;48.874;2.332;2023-10-09T12:40:12;101784.52;;;27.62;41.70
39275;BME280;24980;48.874;2.332;2023-10-09T12:42:42;101781.02;;;27.67;41.67
39275;BME280;24980;48.874;2.332;2023-10-09T12:45:12;101776.17;;;27.71;41.64
39275;BME280;24980;48.874;2.332;2023-10-09T12:47:42;101775.38;;;27.74;41.62
39275;BME280;24980;48.874;2.332;2023-10-09T12:50:12;101771.86;;;27.76;41.63
39275;BME280;24980;48.874;2.332;2023-10-09T12:52:43;101770.52;;;27.78;41.63
39275;BME280;24980;48.874;2.332;2023-10-09T12:55:13;101767.69;;;27.80;41.64
39275;BME280;24980;48.874;2.332;2023-10-09T12:57:43;101764.81;;;27.82;41.64
39275;BME280;24980;48.874;2.332;2023-10-09T13:00:13;101767.14;;;27.84;41.65
39275;BME280;24980;48.874;2.332;2023-10-09T13:02:43;101764.62;;;27.83;41.66
39275;BME280;24980;48.874;2.332;2023-10-09T13:05:13;101769.39;;;27.83;41.68
39275;BME280;24980;48.874;2.332;2023-10-09T13:07:43;101762.16;;;27.84;41.70
39275;BME280;24980;48.874;2.332;2023-10-09T13:10:13;101762.88;;;27.84;41.70
39275;BME280;24980;48.874;2.332;2023-10-09T13:12:43;101755.70;;;27.85;41.70
39275;BME280;24980;48.874;2.332;2023-10-09T13:15:13;101752.73;;;27.85;41.71
39275;BME280;24980;48.874;2.332;2023-10-09T13:17:44;101754.08;;;27.86;41.71
39275;BME280;24980;48.874;2.332;2023-10-09T13:20:17;101756.76;;;27.87;41.72
39275;BME280;24980;48.874;2.332;2023-10-09T13:22:44;101751.38;;;27.87;41.71
39275;BME280;24980;48.874;2.332;2023-10-09T13:27:46;101749.64;;;27.86;41.72
39275;BME280;24980;48.874;2.332;2023-10-09T13:30:21;101750.16;;;27.86;41.73